createdAt,value
2022-11-25T00:01:09.483Z,99692.06
2022-11-25T00:03:57.178Z,99650.03
2022-11-25T00:06:40.934Z,99687.66
2022-11-25T00:09:24.878Z,99694.81
2022-11-25T00:12:08.646Z,99674.59
2022-11-25T00:14:52.459Z,99688.88
2022-11-25T00:17:36.234Z,99699.28
2022-11-25T00:20:22.547Z,99653.75
2022-11-25T00:23:06.204Z,99695.69
2022-11-25T00:25:49.913Z,99702.56
2022-11-25T00:28:33.694Z,99701.56
2022-11-25T00:31:20.347Z,99695.06
2022-11-25T00:34:04.739Z,99701.78
2022-11-25T00:36:50.187Z,99664.66
2022-11-25T00:39:34.817Z,99703.63
2022-11-25T00:42:36.164Z,99706.81
2022-11-25T00:45:19.961Z,99713.91
2022-11-25T00:48:03.709Z,99713.53
2022-11-25T00:50:47.390Z,99709.72
2022-11-25T00:53:33.498Z,99696.81
2022-11-25T00:56:17.486Z,99703.63
2022-11-25T00:59:01.284Z,99712.13
2022-11-25T01:01:45.232Z,99707.22
2022-11-25T01:04:29.072Z,99718.56
2022-11-25T01:07:13.521Z,99712.53
2022-11-25T01:09:58.713Z,99712.13
2022-11-25T01:12:42.653Z,99710.69
2022-11-25T01:15:26.965Z,99716.94
2022-11-25T01:18:10.764Z,99710.56
2022-11-25T01:20:54.572Z,99728.53
2022-11-25T01:23:38.648Z,99722.63
2022-11-25T01:26:26.358Z,99710.25
2022-11-25T01:29:15.334Z,99720.59
2022-11-25T01:31:59.163Z,99719.34
2022-11-25T01:34:42.956Z,99721.66
2022-11-25T01:37:26.687Z,99712.66
2022-11-25T01:40:11.904Z,99718.44
2022-11-25T01:42:57.367Z,99720.84
2022-11-25T01:45:41.688Z,99738.91
2022-11-25T01:48:30.634Z,99683.84
2022-11-25T01:51:24.593Z,99721.59
2022-11-25T01:54:12.730Z,99718.25
2022-11-25T01:56:59.828Z,99725.66
2022-11-25T01:59:49.638Z,99729.31
2022-11-25T02:02:33.902Z,99686.81
2022-11-25T02:05:30.921Z,99717.28
2022-11-25T02:08:18.240Z,99714.63
2022-11-25T02:11:04.691Z,99724.34
2022-11-25T02:13:51.339Z,99730.91
2022-11-25T02:16:37.114Z,99720.56
2022-11-25T02:19:24.790Z,99729.97
2022-11-25T02:22:13.904Z,99725.84
2022-11-25T02:25:04.103Z,99737.34
2022-11-25T02:27:52.859Z,99738.13
2022-11-25T02:30:36.992Z,99745.94
2022-11-25T02:33:21.625Z,99741.72
2022-11-25T02:36:08.136Z,99750.63
2022-11-25T02:38:55.939Z,99734.72
2022-11-25T02:41:46.487Z,99720.56
2022-11-25T02:44:31.731Z,99724.75
2022-11-25T02:47:15.417Z,99702.06
2022-11-25T02:49:59.198Z,99739.09
2022-11-25T02:52:42.919Z,99747.28
2022-11-25T02:55:27.005Z,99740.09
2022-11-25T02:58:10.760Z,99713.66
2022-11-25T03:00:57.869Z,99743.50
2022-11-25T03:03:41.722Z,99744.47
2022-11-25T03:06:25.638Z,99762.78
2022-11-25T03:09:10.273Z,99754.47
2022-11-25T03:12:12.534Z,99749.28
2022-11-25T03:14:57.180Z,99744.94
2022-11-25T03:17:42.503Z,99751.91
2022-11-25T03:20:27.171Z,99727.59
2022-11-25T03:23:11.009Z,99744.91
2022-11-25T03:25:54.819Z,99747.81
2022-11-25T03:28:39.024Z,99739.56
2022-11-25T03:31:22.856Z,99744.94
2022-11-25T03:34:08.182Z,99756.34
2022-11-25T03:36:52.229Z,99750.13
2022-11-25T03:39:36.461Z,99738.22
2022-11-25T03:42:21.213Z,99739.03
2022-11-25T03:45:05.949Z,99762.66
2022-11-25T03:47:49.900Z,99766.22
2022-11-25T03:50:35.537Z,99747.13
2022-11-25T03:53:19.480Z,99764.63
2022-11-25T03:56:04.146Z,99760.47
2022-11-25T03:58:47.856Z,99785.13
2022-11-25T04:01:33.073Z,99789.84
2022-11-25T04:04:17.254Z,99775.81
2022-11-25T04:07:02.437Z,99783.41
2022-11-25T04:09:46.732Z,99781.84
2022-11-25T04:12:49.510Z,99735.66
2022-11-25T04:15:37.515Z,99780.28
2022-11-25T04:18:22.631Z,99740.03
2022-11-25T04:21:09.868Z,99787.19
2022-11-25T04:23:55.666Z,99795.28
2022-11-25T04:26:39.590Z,99630.81
2022-11-25T04:29:23.484Z,99794.94
2022-11-25T04:32:07.374Z,99801.69
2022-11-25T04:34:51.098Z,99802.34
2022-11-25T04:37:35.883Z,99807.88
2022-11-25T04:40:21.294Z,99800.31
2022-11-25T04:43:12.416Z,99771.69
2022-11-25T04:46:16.969Z,99809.84
2022-11-25T04:49:04.760Z,99819.63
2022-11-25T04:51:49.328Z,99813.16
2022-11-25T04:54:33.314Z,99810.56
2022-11-25T04:57:18.743Z,99808.34
2022-11-25T05:00:04.146Z,99820.94
2022-11-25T05:02:48.550Z,99753.28
2022-11-25T05:05:36.309Z,99811.81
2022-11-25T05:08:20.343Z,99829.44
2022-11-25T05:11:04.384Z,99820.91
2022-11-25T05:13:49.650Z,99817.84
2022-11-25T05:16:33.719Z,99821.50
2022-11-25T05:19:17.884Z,99808.66
2022-11-25T05:22:02.076Z,99821.50
2022-11-25T05:24:46.597Z,99811.69
2022-11-25T05:27:30.815Z,99828.25
2022-11-25T05:30:21.008Z,99811.56
2022-11-25T05:33:04.904Z,99828.25
2022-11-25T05:35:55.824Z,99842.75
2022-11-25T05:38:41.185Z,99821.16
2022-11-25T05:41:27.243Z,99829.22
2022-11-25T05:44:11.892Z,99843.63
2022-11-25T05:46:57.347Z,99831.00
2022-11-25T05:49:41.426Z,99795.56
2022-11-25T05:52:25.279Z,99884.50
2022-11-25T05:55:14.419Z,99891.31
2022-11-25T05:57:59.857Z,99909.31
2022-11-25T06:00:44.414Z,99862.03
2022-11-25T06:03:31.277Z,99917.75
2022-11-25T06:06:16.711Z,99915.97
2022-11-25T06:09:00.897Z,99932.75
2022-11-25T06:11:46.569Z,99943.63
2022-11-25T06:14:30.897Z,99914.91
2022-11-25T06:17:15.353Z,99909.84
2022-11-25T06:20:09.482Z,99948.16
2022-11-25T06:22:53.843Z,99924.84
2022-11-25T06:25:44.409Z,99920.44
2022-11-25T06:28:28.429Z,99930.72
2022-11-25T06:31:15.651Z,99927.44
2022-11-25T06:34:10.578Z,99967.56
2022-11-25T06:36:57.340Z,99920.81
2022-11-25T06:39:41.192Z,99931.56
2022-11-25T06:42:25.090Z,99937.69
2022-11-25T06:45:10.277Z,99972.94
2022-11-25T06:47:54.283Z,99937.47
2022-11-25T06:50:38.195Z,99966.59
2022-11-25T06:53:24.355Z,99924.78
2022-11-25T06:56:11.089Z,99924.06
2022-11-25T06:58:56.181Z,99977.38
2022-11-25T07:01:40.211Z,99941.97
2022-11-25T07:04:24.283Z,99937.41
2022-11-25T07:07:08.688Z,99985.53
2022-11-25T07:09:54.205Z,99988.88
2022-11-25T07:12:38.289Z,99993.16
2022-11-25T07:15:22.234Z,99945.13
2022-11-25T07:18:06.427Z,99997.09
2022-11-25T07:20:50.279Z,99964.50
2022-11-25T07:23:34.683Z,99990.50
2022-11-25T07:26:22.815Z,99988.69
2022-11-25T07:29:29.306Z,99996.13
2022-11-25T07:32:13.634Z,99969.63
2022-11-25T07:34:57.592Z,99955.56
2022-11-25T07:37:41.660Z,99977.78
2022-11-25T07:40:25.701Z,99965.03
2022-11-25T07:43:11.250Z,100006.44
2022-11-25T07:45:55.851Z,99981.66
2022-11-25T07:48:40.102Z,100016.81
2022-11-25T07:51:26.538Z,100010.66
2022-11-25T07:54:12.786Z,99980.28
2022-11-25T07:56:57.010Z,99946.78
2022-11-25T07:59:42.438Z,99990.75
2022-11-25T08:02:26.529Z,99994.34
2022-11-25T08:05:11.899Z,99988.28
2022-11-25T08:07:55.875Z,99994.59
2022-11-25T08:10:41.566Z,100024.44
2022-11-25T08:13:25.786Z,100000.69
2022-11-25T08:16:13.358Z,99990.75
2022-11-25T08:18:57.687Z,100024.91
2022-11-25T08:21:42.124Z,100004.69
2022-11-25T08:24:26.226Z,100045.81
2022-11-25T08:27:10.195Z,100036.72
2022-11-25T08:29:57.473Z,100009.78
2022-11-25T08:32:43.644Z,100006.91
2022-11-25T08:35:27.917Z,100006.50
2022-11-25T08:38:14.064Z,100047.81
2022-11-25T08:40:58.112Z,100037.44
2022-11-25T08:43:43.035Z,100031.72
2022-11-25T08:46:31.246Z,100004.91
2022-11-25T08:49:17.462Z,100056.00
2022-11-25T08:52:01.292Z,100059.50
2022-11-25T08:54:44.944Z,100053.50
2022-11-25T08:57:28.704Z,100029.72
2022-11-25T09:00:13.454Z,100048.81
2022-11-25T09:02:57.338Z,100051.59
2022-11-25T09:05:44.394Z,100047.66
2022-11-25T09:08:28.576Z,100046.16
2022-11-25T09:11:12.713Z,100063.91
2022-11-25T09:13:56.621Z,100047.09
2022-11-25T09:16:40.509Z,100042.41
2022-11-25T09:19:24.506Z,100069.94
2022-11-25T09:22:10.119Z,100054.22
2022-11-25T09:24:53.824Z,100067.59
2022-11-25T09:27:37.574Z,100062.41
2022-11-25T09:30:21.512Z,100063.16
2022-11-25T09:33:05.481Z,100069.09
2022-11-25T09:35:50.392Z,100067.50
2022-11-25T09:38:38.913Z,100079.69
2022-11-25T09:42:06.098Z,100064.69
2022-11-25T09:45:21.563Z,100086.94
2022-11-25T09:48:23.272Z,100066.53
2022-11-25T09:51:17.897Z,100037.88
2022-11-25T09:54:15.900Z,100055.09
2022-11-25T09:57:05.692Z,100085.22
2022-11-25T09:59:59.591Z,100074.97
2022-11-25T10:02:56.504Z,100065.75
2022-11-25T10:05:44.427Z,100080.47
2022-11-25T10:08:33.997Z,100075.72
2022-11-25T10:11:28.511Z,100082.28
2022-11-25T10:14:20.815Z,100081.91
2022-11-25T10:17:13.477Z,100080.19
2022-11-25T10:20:03.768Z,100085.16
2022-11-25T10:22:50.277Z,100074.34
2022-11-25T10:25:39.099Z,100092.81
2022-11-25T10:28:25.820Z,100106.41
2022-11-25T10:31:17.885Z,100078.09
2022-11-25T10:34:03.418Z,100086.81
2022-11-25T10:36:51.285Z,100082.66
2022-11-25T10:39:36.412Z,100074.91
2022-11-25T10:42:24.469Z,100092.66
2022-11-25T10:45:12.089Z,100062.81
2022-11-25T10:48:16.992Z,100058.88
2022-11-25T10:51:12.636Z,100006.69
2022-11-25T10:54:24.124Z,100058.84
2022-11-25T10:57:20.163Z,100069.16
2022-11-25T11:00:09.577Z,100098.25
2022-11-25T11:02:59.210Z,100096.28
2022-11-25T11:05:48.162Z,100109.13
2022-11-25T11:08:39.340Z,100075.06
2022-11-25T11:11:24.676Z,100116.06
2022-11-25T11:14:20.130Z,100117.75
2022-11-25T11:17:04.348Z,100143.97
2022-11-25T11:20:02.622Z,100129.13
2022-11-25T11:22:50.579Z,100096.81
2022-11-25T11:25:35.703Z,100118.03
2022-11-25T11:28:28.464Z,100126.13
2022-11-25T11:31:19.376Z,100136.88
2022-11-25T11:34:35.910Z,100116.00
2022-11-25T11:37:35.020Z,100133.66
2022-11-25T11:40:37.894Z,100130.97
2022-11-25T11:43:39.233Z,100147.84
2022-11-25T11:46:33.876Z,100118.09
2022-11-25T11:49:38.305Z,100133.34
2022-11-25T11:52:33.033Z,100133.28
2022-11-25T11:55:29.913Z,100122.16
2022-11-25T11:58:26.593Z,100151.72
2022-11-25T12:01:25.596Z,100151.69
2022-11-25T12:04:19.105Z,100150.28
2022-11-25T12:07:07.704Z,100172.22
2022-11-25T12:09:59.047Z,100162.50
2022-11-25T12:12:51.314Z,100151.88
2022-11-25T12:15:42.629Z,100164.09
2022-11-25T13:47:42.775Z,100191.09
2022-11-25T13:50:41.978Z,100184.88
2022-11-25T13:53:35.473Z,100192.53
2022-11-25T13:56:28.862Z,100181.88
2022-11-25T13:59:37.152Z,100192.13
2022-11-25T14:02:38.216Z,100188.19
2022-11-25T14:05:51.699Z,100204.59
2022-11-25T14:08:44.352Z,100196.13
2022-11-25T14:11:50.489Z,100208.34
2022-11-25T14:14:53.683Z,100209.34
2022-11-25T14:18:04.752Z,100213.78
2022-11-25T14:20:56.755Z,100212.13
2022-11-25T14:24:04.454Z,100220.53
2022-11-25T14:26:53.249Z,100221.91
2022-11-25T14:29:41.805Z,100193.31
2022-11-25T14:32:35.417Z,100228.41
2022-11-25T14:35:23.753Z,100223.72
2022-11-25T14:38:14.171Z,100202.88
2022-11-25T14:41:04.433Z,100240.41
2022-11-25T14:43:53.960Z,100241.38
2022-11-25T14:46:52.914Z,100212.59
2022-11-25T14:49:59.596Z,100235.06
2022-11-25T14:52:52.084Z,100242.72
2022-11-25T14:55:38.119Z,100246.09
2022-11-25T14:58:23.410Z,100245.84
2022-11-25T15:01:09.575Z,100248.13
2022-11-25T15:04:04.254Z,100234.50
2022-11-25T15:06:51.391Z,100257.25
2022-11-25T15:09:40.132Z,100232.22
2022-11-25T15:12:28.036Z,100255.75
2022-11-25T15:15:16.798Z,100240.75
2022-11-25T15:18:06.489Z,100241.97
2022-11-25T15:20:54.528Z,100262.34
2022-11-25T15:23:39.467Z,100259.00
2022-11-25T15:26:25.400Z,100247.03
2022-11-25T15:29:13.719Z,100273.19
2022-11-25T15:32:00.837Z,100272.50
2022-11-25T15:34:45.954Z,100279.75
2022-11-25T15:37:30.472Z,100276.84
2022-11-25T15:40:36.898Z,100282.84
2022-11-25T15:43:24.600Z,100279.31
2022-11-25T15:46:09.267Z,100283.78
2022-11-25T15:48:58.783Z,100277.13
2022-11-25T15:51:45.753Z,100281.31
2022-11-25T15:54:33.056Z,100287.16
2022-11-25T15:57:20.128Z,100276.53
2022-11-25T16:00:16.164Z,100280.69
2022-11-25T16:03:01.001Z,100284.56
2022-11-25T16:05:55.733Z,100269.16
2022-11-25T16:08:41.104Z,100250.91
2022-11-25T16:11:29.366Z,100294.25
2022-11-25T16:14:26.049Z,100250.34
2022-11-25T16:17:13.296Z,100251.53
2022-11-25T16:19:57.447Z,100289.34
2022-11-25T16:22:43.106Z,100297.91
2022-11-25T16:25:27.509Z,100268.13
2022-11-25T16:28:20.602Z,100285.66
2022-11-25T16:31:04.770Z,100311.47
2022-11-25T16:33:49.317Z,100275.72
2022-11-25T16:36:33.266Z,100243.84
2022-11-25T16:39:18.823Z,100325.81
2022-11-25T16:42:04.715Z,100330.09
2022-11-25T16:44:50.589Z,100326.78
2022-11-25T16:47:35.017Z,100327.03
2022-11-25T16:50:19.957Z,100329.63
2022-11-25T16:53:04.068Z,100330.47
2022-11-25T16:55:49.821Z,100338.53
2022-11-25T16:58:33.825Z,100339.78
2022-11-25T17:01:19.779Z,100348.22
2022-11-25T17:04:03.532Z,100342.44
2022-11-25T17:07:16.529Z,100345.75
2022-11-25T17:09:52.073Z,100337.69
2022-11-25T17:12:39.353Z,100338.25
2022-11-25T17:15:30.259Z,100347.31
2022-11-25T17:18:18.529Z,100312.56
2022-11-25T17:21:02.621Z,100356.88
2022-11-25T17:23:52.441Z,100355.03
2022-11-25T17:26:40.246Z,100317.81
2022-11-25T17:29:32.103Z,100301.34
2022-11-25T17:32:16.994Z,100316.69
2022-11-25T17:35:00.910Z,100356.09
2022-11-25T17:37:47.838Z,100327.81
2022-11-25T17:40:31.837Z,100324.75
2022-11-25T17:43:16.917Z,100363.00
2022-11-25T17:46:02.463Z,100353.53
2022-11-25T17:48:47.075Z,100324.41
2022-11-25T17:51:30.873Z,100372.88
2022-11-25T17:54:15.589Z,100363.94
2022-11-25T17:56:59.823Z,100368.00
2022-11-25T17:59:43.819Z,100373.59
2022-11-25T18:02:30.497Z,100377.91
2022-11-25T18:05:16.890Z,100386.06
2022-11-25T18:08:00.683Z,100349.13
2022-11-25T18:10:47.240Z,100388.34
2022-11-25T18:13:36.814Z,100390.53
2022-11-25T18:16:23.438Z,100394.63
2022-11-25T18:19:12.856Z,100406.09
2022-11-25T18:22:01.316Z,100401.41
2022-11-25T18:24:45.555Z,100391.72
2022-11-25T18:27:32.185Z,100392.81
2022-11-25T18:30:20.034Z,100385.91
2022-11-25T18:33:06.312Z,100377.66
2022-11-25T18:35:51.853Z,100407.28
2022-11-25T18:38:35.794Z,100406.25
2022-11-25T18:41:22.614Z,100404.81
2022-11-25T18:44:08.207Z,100384.41
2022-11-25T18:46:52.257Z,100287.75
2022-11-25T18:49:36.025Z,100422.72
2022-11-25T18:52:21.246Z,100420.78
2022-11-25T18:55:05.389Z,100431.06
2022-11-25T18:57:50.979Z,100430.06
2022-11-25T19:00:34.928Z,100432.41
2022-11-25T19:03:20.625Z,100447.31
2022-11-25T19:06:04.664Z,100375.75
2022-11-25T19:08:52.477Z,100450.63
2022-11-25T19:11:39.395Z,100456.16
2022-11-25T19:14:30.432Z,100446.69
2022-11-25T19:17:21.793Z,100452.88
2022-11-25T19:20:14.087Z,100451.47
2022-11-25T19:23:01.159Z,100455.56
2022-11-25T19:25:47.042Z,100453.47
2022-11-25T19:28:32.319Z,100453.91
2022-11-25T19:31:17.648Z,100466.03
2022-11-25T19:34:02.669Z,100432.34
2022-11-25T19:36:46.831Z,100442.97
2022-11-25T19:39:36.565Z,100479.75
2022-11-25T19:42:23.175Z,100446.13
2022-11-25T19:45:07.954Z,100453.38
2022-11-25T19:47:53.508Z,100476.84
2022-11-25T19:50:40.496Z,100496.84
2022-11-25T19:53:26.883Z,100468.72
2022-11-25T19:56:18.599Z,100471.94
2022-11-25T19:59:03.817Z,100508.41
2022-11-25T20:01:48.079Z,100507.78
2022-11-25T20:04:32.022Z,100516.38
2022-11-25T20:07:19.194Z,100513.16
2022-11-25T20:10:16.967Z,100511.94
2022-11-25T20:13:01.130Z,100513.28
2022-11-25T20:15:47.001Z,100524.78
2022-11-25T20:18:31.560Z,100526.63
2022-11-25T20:21:22.151Z,100535.38
2022-11-25T20:24:13.277Z,100526.03
2022-11-25T20:26:58.684Z,100539.97
2022-11-25T20:29:42.498Z,100541.25
2022-11-25T20:32:30.364Z,100540.47
2022-11-25T20:35:14.407Z,100541.50
2022-11-25T20:38:00.674Z,100547.59
2022-11-25T20:40:46.125Z,100550.75
2022-11-25T20:43:31.611Z,100545.78
2022-11-25T20:46:18.768Z,100549.41
2022-11-25T20:49:19.896Z,100559.22
2022-11-25T20:52:03.778Z,100558.25
2022-11-25T20:54:47.766Z,100555.94
2022-11-25T20:57:33.408Z,100559.28
2022-11-25T21:00:20.611Z,100549.16
2022-11-25T21:03:04.510Z,100540.09
2022-11-25T21:05:50.938Z,100549.16
2022-11-25T21:08:34.926Z,100530.03
2022-11-25T21:11:20.463Z,100568.84
2022-11-25T21:14:04.384Z,100538.81
2022-11-25T21:16:48.696Z,100570.38
2022-11-25T21:19:32.722Z,100567.91
2022-11-25T21:22:17.954Z,100579.25
2022-11-25T21:25:01.790Z,100571.09
2022-11-25T21:27:47.152Z,100552.09
2022-11-25T21:30:32.292Z,100574.75
2022-11-25T21:33:16.244Z,100582.25
2022-11-25T21:36:01.074Z,100583.41
2022-11-25T21:38:47.911Z,100543.91
2022-11-25T21:41:31.767Z,100585.28
2022-11-25T21:44:25.610Z,100548.13
2022-11-25T21:47:14.821Z,100598.16
2022-11-25T21:49:59.768Z,100561.47
2022-11-25T21:52:43.632Z,100544.56
2022-11-25T21:55:29.034Z,100563.19
2022-11-25T21:58:18.549Z,100554.13
2022-11-25T22:01:03.335Z,100577.13
2022-11-25T22:03:47.316Z,100567.34
2022-11-25T22:06:32.116Z,100563.25
2022-11-25T22:09:16.236Z,100571.75
2022-11-25T22:12:01.673Z,100566.88
2022-11-25T22:14:45.829Z,100559.84
2022-11-25T22:17:31.133Z,100568.44
2022-11-25T22:20:28.604Z,100611.88
2022-11-25T22:23:16.981Z,100515.09
2022-11-25T22:26:00.888Z,100594.00
2022-11-25T22:28:48.955Z,100610.94
2022-11-25T22:31:33.132Z,100570.44
2022-11-25T22:34:19.844Z,100582.09
2022-11-25T22:37:03.858Z,100612.50
2022-11-25T22:39:48.101Z,100579.66
2022-11-25T22:42:33.811Z,100560.22
2022-11-25T22:45:25.479Z,100537.88
2022-11-25T22:48:09.375Z,100574.16
2022-11-25T22:50:53.435Z,100575.72
2022-11-25T22:53:37.291Z,100583.19
2022-11-25T22:56:21.514Z,100573.16
2022-11-25T22:59:05.456Z,100579.22
2022-11-25T23:01:50.855Z,100612.16
2022-11-25T23:04:35.252Z,100543.97
2022-11-25T23:07:20.517Z,100568.84
2022-11-25T23:10:08.298Z,100618.69
2022-11-25T23:12:52.256Z,100606.28
2022-11-25T23:15:36.193Z,100620.69
2022-11-25T23:18:27.256Z,100594.06
2022-11-25T23:21:19.010Z,100609.31
2022-11-25T23:24:02.780Z,100596.56
2022-11-25T23:26:46.588Z,100642.38
2022-11-25T23:29:30.368Z,100646.75
2022-11-25T23:32:19.461Z,100653.44
2022-11-25T23:35:05.385Z,100655.41
2022-11-25T23:37:55.450Z,100652.00
2022-11-25T23:40:40.037Z,100671.00
2022-11-25T23:43:23.957Z,100667.38
2022-11-25T23:46:10.372Z,100669.06
2022-11-25T23:48:57.060Z,100675.22
2022-11-25T23:51:42.472Z,100672.34
2022-11-25T23:54:30.470Z,100673.34
2022-11-25T23:57:16.050Z,100671.56
